Time;durP1;ratioP1;P1;durP2;ratioP2;P2;SDS_P1;SDS_P2;PMS_P1;PMS_P2;Temp;Humidity;BMP_temperature;BMP_pressure;BME280_temperature;BME280_humidity;BME280_pressure;Samples;Min_cycle;Max_cycle;Signal;HPM_P1;HPM_P2
2022/05/04 00:00:08;;;;;;;5.50;5.00;;;;;;;12.55;69.17;98697.31;5073225;28;20028;-49
2022/05/04 00:02:34;;;;;;;5.43;4.35;;;;;;;12.50;69.53;98697.16;5073178;28;20020;-49
2022/05/04 00:05:00;;;;;;;8.40;5.25;;;;;;;12.51;69.84;98696.94;5073194;28;20402;-48
2022/05/04 00:07:25;;;;;;;6.82;4.80;;;;;;;12.54;70.00;98693.88;5073194;28;20451;-50
2022/05/04 00:09:51;;;;;;;6.85;5.10;;;;;;;12.52;69.58;98688.03;5073077;28;20028;-50
2022/05/04 00:12:16;;;;;;;8.73;5.20;;;;;;;12.48;69.89;98692.09;5073035;28;20474;-49
2022/05/04 00:14:42;;;;;;;6.70;5.25;;;;;;;12.44;69.62;98695.38;5071655;28;20095;-49
2022/05/04 00:17:08;;;;;;;6.10;4.95;;;;;;;12.38;69.93;98697.03;5071551;28;20041;-49
2022/05/04 00:19:33;;;;;;;9.43;5.32;;;;;;;12.31;70.03;98694.41;5071511;28;20028;-50
2022/05/04 00:21:59;;;;;;;5.97;5.38;;;;;;;12.28;69.88;98691.41;5071855;28;20021;-49
2022/05/04 00:24:25;;;;;;;8.43;5.18;;;;;;;12.25;70.84;98683.94;5072791;28;20375;-49
2022/05/04 00:26:50;;;;;;;5.40;4.88;;;;;;;12.30;70.61;98682.28;5071352;28;20039;-49
2022/05/04 00:29:16;;;;;;;8.23;5.47;;;;;;;12.38;70.35;98689.13;5072701;28;20028;-49
2022/05/04 00:31:42;;;;;;;8.80;5.68;;;;;;;12.36;69.91;98689.34;5071099;28;20067;-49
2022/05/04 00:34:07;;;;;;;9.18;6.85;;;;;;;12.30;70.01;98686.75;5071292;28;20024;-49
2022/05/04 00:36:33;;;;;;;7.18;5.65;;;;;;;12.24;69.83;98687.59;5072441;28;20027;-50
2022/05/04 00:38:59;;;;;;;8.07;6.05;;;;;;;12.18;70.27;98687.41;5071181;28;20040;-49
2022/05/04 00:41:25;;;;;;;9.60;6.15;;;;;;;12.15;70.15;98682.59;5072463;28;20098;-48
2022/05/04 00:43:54;;;;;;;8.65;6.28;;;;;;;12.09;70.74;98679.97;5072446;28;20055;-48
2022/05/04 00:46:21;;;;;;;9.70;5.60;;;;;;;12.02;70.58;98679.22;5072383;28;20498;-50
2022/05/04 00:48:47;;;;;;;6.93;5.88;;;;;;;11.99;70.72;98689.13;5072298;28;20020;-49
2022/05/04 00:51:13;;;;;;;10.55;6.40;;;;;;;11.97;71.14;98691.16;5070976;28;20024;-50
2022/05/04 00:53:44;;;;;;;8.50;5.85;;;;;;;12.01;70.91;98693.38;5072193;28;20538;-49
2022/05/04 00:56:11;;;;;;;7.22;5.30;;;;;;;12.00;70.57;98689.94;5070857;28;20047;-50
2022/05/04 00:58:57;;;;;;;12.63;5.88;;;;;;;11.96;70.56;98692.16;5072176;28;20013;-50
2022/05/04 01:01:28;;;;;;;10.05;5.93;;;;;;;11.89;70.76;98691.41;5072168;28;20051;-49
2022/05/04 01:03:59;;;;;;;9.95;5.80;;;;;;;11.82;71.08;98692.41;5072066;28;20017;-48
2022/05/04 01:06:26;;;;;;;6.07;5.47;;;;;;;11.74;71.39;98690.81;5071989;28;20052;-50
2022/05/04 01:08:53;;;;;;;10.90;5.75;;;;;;;11.67;71.87;98690.84;5072007;28;20558;-50
2022/05/04 01:11:20;;;;;;;8.00;6.05;;;;;;;11.63;72.18;98683.56;5071919;28;20029;-49
2022/05/04 01:14:09;;;;;;;7.45;5.70;;;;;;;11.66;72.16;98683.16;5071950;28;20119;-50
2022/05/04 01:16:36;;;;;;;8.95;6.07;;;;;;;11.67;71.83;98685.59;5071867;28;20035;-49
2022/05/04 01:19:02;;;;;;;9.80;6.25;;;;;;;11.69;71.53;98682.72;5070589;28;20115;-49
2022/05/04 01:21:28;;;;;;;9.15;6.13;;;;;;;11.65;71.52;98694.66;5070511;28;20124;-49
2022/05/04 01:23:56;;;;;;;9.70;5.47;;;;;;;11.58;72.04;98698.13;5071857;28;20058;-49
2022/05/04 01:26:22;;;;;;;7.65;5.82;;;;;;;11.56;71.96;98688.84;5071805;28;20474;-49
2022/05/04 01:28:47;;;;;;;7.43;6.68;;;;;;;11.51;71.95;98693.91;5072094;28;20063;-49
2022/05/04 01:31:13;;;;;;;9.65;8.57;;;;;;;11.43;72.36;98689.69;5071538;28;20045;-48
2022/05/04 01:33:39;;;;;;;8.23;7.50;;;;;;;11.36;72.36;98692.31;5070119;28;20047;-49
2022/05/04 01:36:09;;;;;;;9.10;7.05;;;;;;;11.30;72.88;98692.34;5070311;28;20021;-49
2022/05/04 01:38:35;;;;;;;8.73;5.53;;;;;;;11.33;72.85;98698.00;5071710;28;20118;-50
2022/05/04 01:41:01;;;;;;;7.78;6.15;;;;;;;11.39;72.68;98696.38;5071633;28;20021;-49
2022/05/04 01:43:27;;;;;;;9.18;5.45;;;;;;;11.41;72.52;98694.34;5071631;28;20131;-51
2022/05/04 01:45:53;;;;;;;9.10;5.97;;;;;;;11.41;72.70;98699.59;5070331;28;20119;-49
2022/05/04 01:48:20;;;;;;;10.00;5.78;;;;;;;11.42;72.49;98703.03;5071577;28;20035;-49
2022/05/04 01:50:46;;;;;;;5.95;5.43;;;;;;;11.40;72.46;98701.41;5071572;28;20021;-49
2022/05/04 01:53:12;;;;;;;7.38;5.72;;;;;;;11.35;72.41;98709.09;5071584;28;20434;-49
2022/05/04 01:55:39;;;;;;;8.30;5.90;;;;;;;11.30;72.50;98713.34;5071457;28;20565;-49
2022/05/04 01:58:05;;;;;;;8.32;5.97;;;;;;;11.31;72.59;98713.16;5070248;28;20394;-49
2022/05/04 02:00:31;;;;;;;7.50;6.80;;;;;;;11.35;72.60;98708.31;5070179;28;20021;-49
2022/05/04 02:02:58;;;;;;;9.93;7.30;;;;;;;11.38;72.92;98707.88;5071515;28;20035;-50
2022/05/04 02:05:25;;;;;;;8.50;6.90;;;;;;;11.40;72.71;98709.28;5071386;28;20525;-49
2022/05/04 02:07:51;;;;;;;10.13;6.95;;;;;;;11.43;72.88;98713.34;5071450;28;20032;-49
2022/05/04 02:10:17;;;;;;;6.38;5.78;;;;;;;11.45;72.64;98719.19;5071382;28;20090;-50
2022/05/04 02:12:43;;;;;;;9.05;6.38;;;;;;;11.45;72.54;98715.75;5071348;28;20028;-49
2022/05/04 02:15:10;;;;;;;10.60;6.97;;;;;;;11.43;72.63;98704.63;5069947;28;20082;-50
2022/05/04 02:17:37;;;;;;;9.25;6.38;;;;;;;11.43;72.77;98712.50;5070000;28;20060;-50
2022/05/04 02:20:04;;;;;;;6.93;5.88;;;;;;;11.45;72.75;98713.94;5071294;28;20017;-49
2022/05/04 02:22:30;;;;;;;7.88;5.78;;;;;;;11.48;72.73;98707.47;5071191;28;20024;-49
2022/05/04 02:24:56;;;;;;;7.80;5.65;;;;;;;11.50;72.47;98713.31;5071246;28;20021;-49
2022/05/04 02:27:22;;;;;;;6.60;5.00;;;;;;;11.46;72.28;98714.75;5069883;28;20405;-49
2022/05/04 02:29:48;;;;;;;7.80;5.40;;;;;;;11.39;72.32;98715.56;5069686;28;20387;-49
2022/05/04 02:32:14;;;;;;;5.97;5.47;;;;;;;11.34;72.46;98702.22;5071207;28;20100;-49
2022/05/04 02:40:11;;;;;;;7.65;6.28;;;;;;;11.20;72.62;98703.25;5071420;28;20086;-49
2022/05/04 02:42:36;;;;;;;6.47;5.47;;;;;;;11.23;72.56;98697.59;5069754;28;20036;-49
2022/05/04 02:45:04;;;;;;;6.50;5.90;;;;;;;11.25;72.63;98697.38;5070490;28;20028;-49
2022/05/04 02:47:30;;;;;;;11.60;6.00;;;;;;;11.25;72.50;98692.97;5074667;28;20021;-49
2022/05/04 02:49:56;;;;;;;7.03;5.70;;;;;;;11.25;72.35;98695.59;5073324;28;20097;-49
2022/05/04 02:52:22;;;;;;;8.95;5.55;;;;;;;11.23;72.52;98702.84;5074577;28;20013;-48
2022/05/04 02:54:47;;;;;;;11.05;6.57;;;;;;;11.18;72.45;98700.03;5073235;28;20058;-50
2022/05/04 02:57:13;;;;;;;7.68;6.15;;;;;;;11.10;72.22;98701.03;5074361;28;20029;-50
2022/05/04 02:59:39;;;;;;;7.00;6.30;;;;;;;11.03;72.66;98694.16;5073114;28;20024;-48
2022/05/04 03:04:48;;;;;;;19.77;6.95;;;;;;;10.89;72.85;98699.44;5074449;28;20452;-50
2022/05/04 03:07:14;;;;;;;8.00;5.80;;;;;;;10.84;73.18;98701.03;5074249;28;20024;-50
2022/05/04 03:09:40;;;;;;;7.45;6.05;;;;;;;10.79;73.90;98701.66;5074283;28;20020;-48
2022/05/04 03:12:06;;;;;;;7.88;6.00;;;;;;;10.77;73.93;98701.84;5072925;28;20028;-49
2022/05/04 03:14:32;;;;;;;8.07;6.07;;;;;;;10.76;73.63;98705.47;5074088;28;20024;-49
2022/05/04 03:16:58;;;;;;;10.40;5.95;;;;;;;10.77;73.77;98698.44;5074081;28;20048;-49
2022/05/04 03:19:25;;;;;;;7.07;5.50;;;;;;;10.80;74.05;98703.25;5072806;28;20032;-48
2022/05/04 03:21:51;;;;;;;6.47;5.80;;;;;;;10.83;73.87;98696.81;5072725;28;20024;-48
2022/05/04 03:24:17;;;;;;;7.53;5.32;;;;;;;10.88;73.68;98697.00;5074008;28;20116;-49
2022/05/04 03:26:43;;;;;;;8.82;6.00;;;;;;;10.93;73.50;98694.59;5073980;28;20063;-49
2022/05/04 03:29:10;;;;;;;5.65;5.13;;;;;;;10.94;73.20;98697.00;5072593;28;20042;-50
2022/05/04 03:31:36;;;;;;;10.57;6.10;;;;;;;10.91;73.17;98691.38;5073776;28;20129;-49
2022/05/04 03:34:03;;;;;;;12.15;6.05;;;;;;;10.85;73.27;98689.53;5073942;28;20391;-49
2022/05/04 03:36:29;;;;;;;6.35;5.75;;;;;;;10.76;73.27;98692.34;5072412;28;20028;-49
2022/05/04 03:38:55;;;;;;;6.45;5.57;;;;;;;10.71;73.65;98694.78;5072481;28;20032;-49
2022/05/04 03:41:21;;;;;;;5.88;5.30;;;;;;;10.68;73.85;98691.75;5072371;28;20028;-49
2022/05/04 03:43:47;;;;;;;8.07;5.90;;;;;;;10.64;73.94;98693.94;5073683;28;20016;-49
2022/05/04 03:46:18;;;;;;;8.27;6.32;;;;;;;10.59;73.90;98691.13;5073566;28;20033;-50
2022/05/04 03:48:45;;;;;;;9.65;6.32;;;;;;;10.56;73.96;98702.03;5072313;28;20040;-49
2022/05/04 03:51:14;;;;;;;7.60;6.03;;;;;;;10.53;74.83;98700.59;5073465;28;20043;-49
2022/05/04 03:53:40;;;;;;;8.30;6.45;;;;;;;10.52;75.19;98701.63;5073496;28;20024;-49
2022/05/04 03:56:07;;;;;;;7.60;6.25;;;;;;;10.51;74.92;98700.00;5073146;28;20028;-49
2022/05/04 03:58:34;;;;;;;8.88;6.32;;;;;;;10.50;75.37;98701.03;5072035;28;20028;-50
2022/05/04 04:01:00;;;;;;;8.25;5.78;;;;;;;10.54;74.93;98701.41;5073298;28;20389;-49
2022/05/04 04:03:26;;;;;;;7.00;6.13;;;;;;;10.55;75.10;98700.41;5071910;28;20020;-48
2022/05/04 04:05:52;;;;;;;8.73;6.25;;;;;;;10.53;74.83;98699.81;5073188;28;20551;-50
2022/05/04 04:08:18;;;;;;;7.93;6.07;;;;;;;10.47;75.46;98703.22;5071829;28;20571;-49
2022/05/04 04:10:44;;;;;;;12.13;7.95;;;;;;;10.45;74.62;98698.19;5071785;28;20035;-49
2022/05/04 04:13:09;;;;;;;8.65;5.95;;;;;;;10.36;74.57;98700.19;5073080;28;20433;-49
2022/05/04 04:15:35;;;;;;;6.13;5.32;;;;;;;10.27;74.54;98696.09;5071592;28;20029;-48
2022/05/04 04:18:01;;;;;;;9.95;5.93;;;;;;;10.19;74.98;98698.88;5071612;28;20031;-49
2022/05/04 04:23:11;;;;;;;7.80;5.97;;;;;;;10.08;74.98;98700.28;5072873;28;20111;-50
2022/05/04 04:25:37;;;;;;;8.98;6.10;;;;;;;10.06;75.69;98691.78;5072774;28;20056;-49
2022/05/04 04:28:03;;;;;;;6.63;5.88;;;;;;;10.05;75.84;98695.41;5071460;28;20127;-49
2022/05/04 04:30:29;;;;;;;9.32;6.18;;;;;;;10.10;76.08;98705.31;5072422;28;20036;-49
2022/05/04 04:32:55;;;;;;;8.85;5.63;;;;;;;10.15;75.54;98708.97;5072680;28;20025;-49
2022/05/04 04:35:20;;;;;;;7.50;6.05;;;;;;;10.19;75.34;98702.31;5072448;28;20521;-48
2022/05/04 04:37:47;;;;;;;6.60;6.00;;;;;;;10.22;75.29;98708.16;5071264;28;20062;-49
2022/05/04 04:40:13;;;;;;;7.18;5.93;;;;;;;10.24;75.26;98716.66;5072490;28;20021;-49
2022/05/04 04:42:38;;;;;;;6.82;6.05;;;;;;;10.23;74.92;98707.97;5072470;28;20031;-49
2022/05/04 04:45:06;;;;;;;7.28;6.15;;;;;;;10.27;75.18;98717.06;5072389;28;20032;-49
2022/05/04 04:47:32;;;;;;;6.15;5.30;;;;;;;10.32;74.95;98711.25;5072412;28;20020;-48
2022/05/04 04:49:58;;;;;;;8.75;5.50;;;;;;;10.55;74.87;98718.78;5071050;28;20126;-49
2022/05/04 04:52:24;;;;;;;9.68;5.88;;;;;;;11.14;73.30;98719.81;5072236;28;20130;-49
2022/05/04 04:54:51;;;;;;;8.82;5.35;;;;;;;11.80;71.67;98719.69;5072243;28;20028;-49
2022/05/04 04:57:17;;;;;;;15.70;5.80;;;;;;;12.37;70.06;98722.56;5072120;28;20012;-50
2022/05/04 04:59:43;;;;;;;11.68;5.30;;;;;;;12.93;68.21;98720.94;5072178;28;20483;-49
2022/05/04 05:02:10;;;;;;;7.45;5.00;;;;;;;13.52;66.46;98716.22;5072106;28;20103;-50
2022/05/04 05:04:35;;;;;;;5.28;4.78;;;;;;;14.04;64.39;98722.94;5072117;28;20021;-50
2022/05/04 05:07:01;;;;;;;6.80;4.30;;;;;;;14.48;62.87;98718.31;5072016;28;20058;-49
2022/05/04 05:09:27;;;;;;;5.28;4.38;;;;;;;14.85;61.14;98719.03;5071594;28;20020;-50
2022/05/04 05:11:53;;;;;;;6.07;4.55;;;;;;;15.18;60.26;98715.03;5072026;28;20031;-49
2022/05/04 05:17:02;;;;;;;11.20;5.30;;;;;;;15.68;58.37;98729.63;5071904;28;20031;-49
2022/05/04 05:19:28;;;;;;;13.23;5.60;;;;;;;15.65;58.33;98730.88;5070680;28;20025;-49
2022/05/04 05:21:54;;;;;;;9.35;4.25;;;;;;;15.46;58.48;98722.28;5071876;28;20017;-48
2022/05/04 05:24:19;;;;;;;10.25;4.53;;;;;;;15.35;59.43;98726.53;5071835;28;20072;-49
2022/05/04 05:26:45;;;;;;;4.85;3.95;;;;;;;15.70;58.57;98720.41;5071804;28;20085;-50
2022/05/04 05:29:11;;;;;;;9.52;4.15;;;;;;;16.23;57.40;98729.16;5071776;28;20020;-50
2022/05/04 05:31:37;;;;;;;8.07;4.20;;;;;;;16.75;55.80;98734.31;5070229;28;20080;-49
2022/05/04 05:34:03;;;;;;;8.63;4.38;;;;;;;17.24;54.14;98725.06;5070434;28;20031;-49
2022/05/04 05:36:28;;;;;;;8.27;4.32;;;;;;;17.52;52.93;98724.91;5071638;28;20024;-50
2022/05/04 05:38:54;;;;;;;15.80;4.05;;;;;;;17.98;52.37;98727.41;5071773;28;20040;-50
2022/05/04 05:41:23;;;;;;;10.55;5.05;;;;;;;18.47;50.58;98721.28;5070346;28;20021;-49
2022/05/04 05:43:52;;;;;;;9.55;4.10;;;;;;;18.95;49.42;98724.94;5071953;28;20137;-49
2022/05/04 05:46:18;;;;;;;6.07;4.03;;;;;;;19.36;48.51;98719.91;5070305;28;20060;-50
2022/05/04 05:48:47;;;;;;;6.95;3.85;;;;;;;19.89;47.29;98714.63;5071589;28;20467;-50
2022/05/04 05:51:13;;;;;;;7.03;4.07;;;;;;;20.14;46.23;98717.38;5071568;28;20024;-50
2022/05/04 05:53:39;;;;;;;7.45;3.70;;;;;;;20.25;45.60;98722.72;5071632;28;20039;-49
2022/05/04 05:56:05;;;;;;;7.57;4.28;;;;;;;20.43;45.16;98727.56;5071695;28;20028;-51
2022/05/04 05:58:30;;;;;;;11.73;3.90;;;;;;;20.72;44.39;98724.44;5071532;28;20422;-49
2022/05/04 06:00:56;;;;;;;8.40;4.25;;;;;;;21.07;43.79;98717.50;5071506;28;20032;-49
2022/05/04 06:03:22;;;;;;;8.25;3.65;;;;;;;21.57;43.17;98721.19;5071493;28;20047;-49
2022/05/04 06:05:48;;;;;;;8.73;4.78;;;;;;;22.11;41.43;98716.94;5070132;28;20468;-49
2022/05/04 06:08:14;;;;;;;7.80;3.95;;;;;;;22.47;40.57;98714.91;5071421;28;20045;-49
2022/05/04 06:10:40;;;;;;;11.00;3.80;;;;;;;22.74;39.78;98719.00;5071392;28;20029;-50
2022/05/04 06:13:06;;;;;;;5.40;3.70;;;;;;;22.90;39.42;98714.34;5071391;28;20100;-50
2022/05/04 06:15:33;;;;;;;6.93;3.45;;;;;;;23.28;38.94;98719.88;5071306;28;20024;-50
2022/05/04 06:17:59;;;;;;;8.50;3.45;;;;;;;23.87;37.70;98716.06;5071373;28;20483;-50
2022/05/04 06:20:26;;;;;;;7.70;3.83;;;;;;;24.43;37.12;98716.41;5072782;28;20031;-50
2022/05/04 06:22:52;;;;;;;8.18;3.85;;;;;;;25.05;35.79;98709.00;5073852;28;20023;-50
2022/05/04 06:25:18;;;;;;;14.18;3.80;;;;;;;25.33;35.36;98711.75;5073779;28;20585;-51
2022/05/04 06:27:44;;;;;;;13.32;4.13;;;;;;;25.68;35.33;98712.97;5073737;28;20032;-50
2022/05/04 06:35:38;;;;;;;19.58;5.47;;;;;;;27.69;32.21;98707.19;5074813;28;20112;-50
2022/05/04 06:38:04;;;;;;;14.27;4.38;;;;;;;28.18;31.51;98707.13;5074841;28;20029;-49
2022/05/04 06:40:30;;;;;;;13.05;4.47;;;;;;;28.63;30.69;98711.44;5074716;28;20035;-50
2022/05/04 06:42:57;;;;;;;23.13;4.15;;;;;;;29.18;29.95;98707.25;5074735;28;20029;-50
2022/05/04 06:45:23;;;;;;;20.95;3.83;;;;;;;29.71;29.42;98710.50;5075028;28;20083;-51
2022/05/04 06:47:48;;;;;;;8.48;3.65;;;;;;;30.05;28.69;98709.53;5074696;28;20498;-50
2022/05/04 06:50:14;;;;;;;8.35;3.50;;;;;;;30.20;28.24;98710.84;5074551;28;20017;-50
2022/05/04 06:52:41;;;;;;;13.55;3.83;;;;;;;30.45;28.05;98707.16;5073307;28;20464;-50
2022/05/04 06:55:07;;;;;;;25.13;4.63;;;;;;;30.71;28.08;98708.03;5074834;28;20116;-50
2022/05/04 06:57:32;;;;;;;11.95;4.45;;;;;;;30.85;27.78;98714.78;5074431;28;20066;-50
2022/05/04 06:59:59;;;;;;;11.93;4.15;;;;;;;30.95;27.53;98708.16;5074427;28;20406;-50
2022/05/04 07:02:25;;;;;;;15.18;3.90;;;;;;;31.03;27.38;98711.91;5073090;28;20556;-51
2022/05/04 07:04:51;;;;;;;12.45;3.85;;;;;;;31.10;27.69;98716.78;5074309;28;20036;-50
2022/05/04 07:07:17;;;;;;;9.05;3.55;;;;;;;31.24;27.15;98715.31;5074333;28;20021;-51
2022/05/04 07:09:43;;;;;;;9.23;3.80;;;;;;;31.57;26.34;98713.66;5074326;28;20482;-50
2022/05/04 07:12:08;;;;;;;7.13;3.33;;;;;;;31.71;26.12;98713.34;5072891;28;20366;-49
2022/05/04 07:14:34;;;;;;;9.45;4.55;;;;;;;31.56;26.27;98714.81;5072900;28;20025;-50
2022/05/04 07:17:00;;;;;;;11.68;3.97;;;;;;;31.31;26.68;98720.22;5072782;28;20020;-50
2022/05/04 07:19:26;;;;;;;11.65;3.97;;;;;;;31.18;27.17;98721.31;5074139;28;20391;-49
2022/05/04 07:21:51;;;;;;;9.73;4.20;;;;;;;31.29;26.75;98716.22;5074043;28;20020;-50
2022/05/04 07:24:17;;;;;;;14.20;4.30;;;;;;;31.55;26.35;98721.38;5074068;28;20394;-49
2022/05/04 07:26:43;;;;;;;11.27;4.10;;;;;;;32.16;25.70;98732.19;5073944;28;20107;-50
2022/05/04 07:29:10;;;;;;;10.07;3.78;;;;;;;32.78;24.70;98729.28;5073919;28;20107;-49
2022/05/04 07:31:37;;;;;;;9.98;3.92;;;;;;;33.45;24.50;98726.75;5073192;28;20044;-49
2022/05/04 07:34:03;;;;;;;11.20;3.70;;;;;;;33.90;23.51;98730.13;5073890;28;20087;-50
2022/05/04 07:36:29;;;;;;;10.98;3.95;;;;;;;34.11;23.18;98727.06;5073658;28;20067;-51
2022/05/04 07:38:55;;;;;;;9.68;3.53;;;;;;;34.25;23.27;98726.63;5073773;28;20020;-51
2022/05/04 07:44:04;;;;;;;23.40;4.30;;;;;;;35.14;22.22;98722.91;5073723;28;20028;-51
2022/05/04 07:46:30;;;;;;;15.73;3.58;;;;;;;35.24;21.52;98720.75;5073535;28;20033;-50
2022/05/04 07:48:56;;;;;;;14.55;3.25;;;;;;;35.53;21.44;98720.03;5072260;28;20071;-50
2022/05/04 07:51:22;;;;;;;6.18;2.75;;;;;;;35.83;21.13;98722.06;5073773;28;20032;-51
2022/05/04 07:53:48;;;;;;;6.60;3.22;;;;;;;35.94;20.56;98714.81;5072232;28;20025;-52
2022/05/04 07:56:14;;;;;;;8.60;3.38;;;;;;;36.09;20.56;98720.47;5073290;28;20390;-51
2022/05/04 07:58:39;;;;;;;13.48;3.38;;;;;;;36.07;20.54;98726.28;5073415;28;20137;-51
2022/05/04 08:06:33;;;;;;;11.20;3.83;;;;;;;36.19;20.41;98717.88;5073525;28;20051;-50
2022/05/04 08:08:59;;;;;;;20.15;4.57;;;;;;;36.15;20.61;98721.75;5073393;28;20375;-51
2022/05/04 08:11:24;;;;;;;31.95;5.68;;;;;;;36.33;20.67;98725.47;5055194;28;20058;-50
2022/05/04 08:13:50;;;;;;;9.80;3.60;;;;;;;36.19;20.33;98720.63;5073066;28;20028;-50
2022/05/04 08:16:16;;;;;;;11.85;3.90;;;;;;;35.86;20.89;98721.34;5073202;28;20482;-50
2022/05/04 08:18:42;;;;;;;18.80;4.65;;;;;;;35.96;20.74;98723.44;5073030;28;20494;-50
2022/05/04 08:21:10;;;;;;;9.40;3.47;;;;;;;36.07;20.38;98720.03;5071695;28;20149;-50
2022/05/04 08:23:36;;;;;;;37.00;5.40;;;;;;;36.12;20.34;98717.78;5072901;28;20029;-51
2022/05/04 08:26:02;;;;;;;13.13;2.78;;;;;;;36.48;19.59;98725.66;5072816;28;20033;-51
2022/05/04 08:28:29;;;;;;;7.90;2.08;;;;;;;36.92;18.97;98722.22;5072766;28;20017;-50
2022/05/04 08:30:55;;;;;;;14.25;3.13;;;;;;;37.18;18.70;98719.38;5072554;28;20120;-51
2022/05/04 08:33:20;;;;;;;6.88;2.65;;;;;;;37.51;18.60;98714.94;5072682;28;20044;-51
2022/05/04 08:35:47;;;;;;;11.25;2.67;;;;;;;37.77;18.27;98718.63;5071249;28;20024;-51
2022/05/04 08:38:12;;;;;;;5.70;2.30;;;;;;;37.94;18.14;98717.19;5072624;28;20029;-51
2022/05/04 08:40:40;;;;;;;2.10;1.88;;;;;;;38.08;17.64;98711.03;5072455;28;20052;-51
2022/05/04 08:43:07;;;;;;;4.78;2.25;;;;;;;38.22;17.79;98722.03;5071557;28;20016;-51
2022/05/04 08:45:40;;;;;;;7.53;2.25;;;;;;;38.01;17.46;98730.13;5072379;28;20028;-51
2022/05/04 08:48:09;;;;;;;8.40;2.40;;;;;;;38.20;17.55;98720.88;5071114;28;20069;-50
2022/05/04 08:50:37;;;;;;;7.78;2.28;;;;;;;38.59;17.16;98726.50;5072192;28;20027;-52
2022/05/04 08:53:04;;;;;;;6.15;2.20;;;;;;;38.97;16.51;98727.00;5072257;28;20031;-51
2022/05/04 08:55:30;;;;;;;9.30;2.88;;;;;;;39.06;16.79;98724.66;5070860;28;20036;-49
2022/05/04 08:57:56;;;;;;;13.32;3.22;;;;;;;39.36;17.08;98712.47;5072153;28;20048;-51
2022/05/04 09:00:23;;;;;;;6.43;2.80;;;;;;;39.48;16.32;98716.81;5070766;28;20040;-50
2022/05/04 09:02:48;;;;;;;17.35;3.58;;;;;;;39.43;16.58;98714.50;5070928;28;20032;-51
2022/05/04 09:05:25;;;;;;;13.77;3.05;;;;;;;39.37;16.57;98716.03;5072029;28;20410;-51
2022/05/04 09:07:57;;;;;;;10.02;2.35;;;;;;;39.58;16.34;98702.28;5070745;28;20502;-52
2022/05/04 09:10:27;;;;;;;23.33;3.70;;;;;;;40.03;16.21;98704.56;5072010;28;20072;-50
2022/05/04 09:12:59;;;;;;;6.05;2.00;;;;;;;40.12;15.94;98702.16;5071926;28;20029;-51
2022/05/04 09:15:30;;;;;;;7.93;2.70;;;;;;;40.00;15.93;98703.38;5071794;28;20032;-51
2022/05/04 09:18:08;;;;;;;6.07;2.15;;;;;;;40.08;15.52;98706.88;5070534;28;20035;-50
2022/05/04 09:20:52;;;;;;;6.68;2.70;;;;;;;40.34;15.66;98700.13;5071936;28;20028;-51
2022/05/04 09:23:23;;;;;;;5.40;1.90;;;;;;;40.67;15.49;98701.53;5071827;28;20059;-51
2022/05/04 09:26:15;;;;;;;10.43;2.38;;;;;;;40.84;15.29;98699.84;5070533;28;20079;-51
2022/05/04 09:28:40;;;;;;;5.75;1.70;;;;;;;40.23;15.34;98693.88;5071530;28;20077;-51
2022/05/04 09:31:07;;;;;;;4.18;1.73;;;;;;;39.64;16.04;98699.91;5071508;28;20068;-51
2022/05/04 09:33:37;;;;;;;4.18;2.13;;;;;;;39.18;16.22;98695.25;5071727;28;20445;-51
2022/05/04 09:36:03;;;;;;;10.07;2.38;;;;;;;38.90;16.94;98696.78;5071458;28;20024;-51
2022/05/04 09:46:48;;;;;;;8.50;2.70;;;;;;;39.40;16.52;98688.56;5071592;28;20032;-51
2022/05/04 09:49:19;;;;;;;4.43;2.10;;;;;;;39.91;16.31;98689.28;5071531;28;20029;-51
2022/05/04 09:51:51;;;;;;;7.40;2.53;;;;;;;39.89;15.80;98684.19;5071733;28;20021;-51
2022/05/04 09:54:28;;;;;;;7.78;2.35;;;;;;;39.49;15.91;98677.19;5072808;28;20194;-51
2022/05/04 09:56:59;;;;;;;15.63;2.55;;;;;;;39.07;16.58;98687.00;5074205;28;20440;-51
2022/05/04 09:59:30;;;;;;;5.05;2.25;;;;;;;38.63;16.55;98677.16;5075679;28;20029;-51
2022/05/04 10:01:59;;;;;;;11.05;2.47;;;;;;;38.24;16.88;98684.06;5075541;28;20028;-51
2022/05/04 10:04:25;;;;;;;6.10;1.70;;;;;;;38.21;17.39;98679.34;5075792;28;20115;-51
2022/05/04 10:06:52;;;;;;;6.28;2.30;;;;;;;38.32;17.35;98673.91;5057640;28;20085;-52
2022/05/04 10:09:20;;;;;;;6.78;2.20;;;;;;;38.64;16.62;98675.97;5075370;28;20040;-51
2022/05/04 10:11:46;;;;;;;14.00;2.55;;;;;;;39.05;16.91;98667.41;5074105;28;20066;-51
2022/05/04 10:14:15;;;;;;;7.75;1.88;;;;;;;39.00;16.36;98670.53;5073996;28;20078;-51
2022/05/04 10:17:11;;;;;;;3.08;1.92;;;;;;;38.83;16.80;98669.31;5075440;28;20142;-51
2022/05/04 10:19:47;;;;;;;4.22;2.20;;;;;;;38.64;16.46;98665.00;5074571;28;20037;-52
2022/05/04 10:22:20;;;;;;;5.28;2.40;;;;;;;37.92;17.25;98668.25;5075148;28;20028;-51
2022/05/04 10:24:46;;;;;;;5.35;1.58;;;;;;;37.57;17.38;98668.81;5075162;28;20056;-51
2022/05/04 10:27:18;;;;;;;3.85;1.63;;;;;;;37.63;17.40;98672.00;5075096;28;20060;-51
2022/05/04 10:32:33;;;;;;;7.35;2.20;;;;;;;37.75;17.32;98661.53;5075337;28;20075;-51
2022/05/04 10:35:32;;;;;;;6.43;1.73;;;;;;;37.91;16.90;98660.41;5074888;28;20036;-52
2022/05/04 10:37:57;;;;;;;3.30;1.60;;;;;;;38.30;16.84;98662.56;5073638;28;20077;-51
2022/05/04 10:40:30;;;;;;;7.68;1.88;;;;;;;38.19;16.91;98658.97;5074827;28;20107;-51
2022/05/04 10:42:57;;;;;;;5.32;1.73;;;;;;;38.48;16.44;98652.41;5074834;28;20047;-51
2022/05/04 10:45:29;;;;;;;5.32;1.90;;;;;;;38.79;16.22;98663.06;5074696;28;20025;-51
2022/05/04 10:48:13;;;;;;;2.85;1.90;;;;;;;39.31;15.81;98655.22;5074752;28;20581;-50
2022/05/04 10:50:55;;;;;;;4.07;1.70;;;;;;;39.69;15.30;98650.84;5074643;28;20028;-51
2022/05/04 10:53:24;;;;;;;5.05;1.65;;;;;;;40.26;14.76;98640.81;5074547;28;20070;-52
2022/05/04 10:55:56;;;;;;;10.00;1.88;;;;;;;40.90;14.55;98639.66;5073188;28;20036;-52
2022/05/04 10:58:46;;;;;;;7.07;1.88;;;;;;;41.38;14.13;98636.09;5074881;28;20390;-51
2022/05/04 11:01:20;;;;;;;4.28;1.70;;;;;;;41.59;13.96;98634.28;5074571;28;20024;-51
2022/05/04 11:04:10;;;;;;;8.20;2.15;;;;;;;41.47;13.52;98633.59;5074396;28;20025;-52
2022/05/04 11:06:41;;;;;;;5.07;1.67;;;;;;;41.19;13.83;98622.88;5073488;28;20483;-51
2022/05/04 11:09:12;;;;;;;7.07;1.83;;;;;;;40.66;14.17;98622.91;5073138;28;20498;-52
2022/05/04 11:11:40;;;;;;;3.05;1.80;;;;;;;39.88;14.80;98610.38;5074304;28;20036;-50
2022/05/04 11:14:07;;;;;;;19.80;3.70;;;;;;;37.96;16.01;98619.72;5074306;28;20020;-51
2022/05/04 11:16:33;;;;;;;44.83;4.22;;;;;;;36.14;17.60;98624.50;5074112;28;20058;-50
2022/05/04 11:19:00;;;;;;;16.30;2.47;;;;;;;36.27;17.74;98614.13;5056371;28;20025;-49
2022/05/04 11:21:28;;;;;;;5.32;1.90;;;;;;;37.09;16.51;98614.91;5074152;28;20052;-51
2022/05/04 11:23:56;;;;;;;4.13;1.77;;;;;;;37.43;16.52;98608.47;5056224;28;20528;-51
2022/05/04 11:26:26;;;;;;;33.85;4.15;;;;;;;37.85;16.02;98609.88;5073992;28;20032;-53
2022/05/04 11:28:53;;;;;;;13.48;2.35;;;;;;;38.06;15.90;98611.97;5074042;28;20029;-51
2022/05/04 11:31:20;;;;;;;26.88;3.00;;;;;;;38.68;15.29;98599.97;5073676;28;20063;-52
2022/05/04 11:33:48;;;;;;;14.40;2.67;;;;;;;38.71;15.04;98605.44;5072564;28;20024;-52
2022/05/04 11:36:20;;;;;;;2.78;1.73;;;;;;;38.89;15.30;98599.16;5072553;28;20021;-51
2022/05/04 11:38:46;;;;;;;4.32;1.83;;;;;;;38.43;14.85;98600.66;5074116;28;20024;-50
2022/05/04 11:41:13;;;;;;;5.47;1.92;;;;;;;36.52;16.47;98601.50;5073724;28;20055;-51
2022/05/04 11:43:39;;;;;;;3.88;1.63;;;;;;;34.29;17.94;98604.88;5072462;28;20064;-51
2022/05/04 11:46:07;;;;;;;16.92;2.42;;;;;;;33.46;19.51;98607.81;5073602;28;20040;-50
2022/05/04 11:48:44;;;;;;;36.30;2.90;;;;;;;34.54;18.91;98599.91;5072285;28;20398;-51
2022/05/04 11:51:11;;;;;;;5.65;1.90;;;;;;;35.90;17.17;98591.06;5073548;28;20161;-51
2022/05/04 11:53:38;;;;;;;7.05;1.98;;;;;;;37.26;16.36;98591.56;5073512;28;20056;-51
2022/05/04 11:56:06;;;;;;;3.33;1.80;;;;;;;37.45;16.03;98585.03;5055552;28;20061;-51
2022/05/04 11:58:34;;;;;;;4.05;1.50;;;;;;;37.17;16.08;98580.19;5073722;28;20024;-51
2022/05/04 12:01:02;;;;;;;3.50;1.50;;;;;;;37.65;15.59;98582.03;5073386;28;20077;-51
2022/05/04 12:03:31;;;;;;;1.45;1.35;;;;;;;38.10;14.88;98580.66;5071960;28;20086;-51
2022/05/04 12:05:57;;;;;;;3.65;1.77;;;;;;;38.68;14.36;98580.75;5073239;28;20502;-51
2022/05/04 12:08:24;;;;;;;1.92;1.55;;;;;;;39.06;14.06;98576.44;5073220;28;20029;-51
2022/05/04 12:10:50;;;;;;;8.05;2.08;;;;;;;39.11;13.74;98576.03;5073410;28;20480;-51